createdAt,value
2018-04-08T00:00:40.756Z,14.84
2018-04-08T00:05:42.073Z,14.71
2018-04-08T00:10:43.364Z,14.42
2018-04-08T00:15:44.650Z,14.25
2018-04-08T00:20:45.955Z,14.29
2018-04-08T00:25:47.323Z,14.29
2018-04-08T00:30:48.664Z,14.23
2018-04-08T00:35:49.983Z,14.20
2018-04-08T00:40:51.305Z,14.21
2018-04-08T00:45:52.624Z,14.12
2018-04-08T00:50:53.984Z,13.99
2018-04-08T00:55:55.310Z,13.92
2018-04-08T01:00:56.653Z,13.88
2018-04-08T01:05:57.992Z,13.83
2018-04-08T01:10:59.309Z,13.75
2018-04-08T01:16:00.644Z,13.64
2018-04-08T01:21:02.721Z,13.45
2018-04-08T01:26:04.060Z,13.40
2018-04-08T01:31:05.380Z,13.39
2018-04-08T01:36:06.708Z,13.43
2018-04-08T01:41:08.011Z,13.40
2018-04-08T01:46:17.093Z,13.14
2018-04-08T01:51:19.134Z,13.09
2018-04-08T01:56:20.467Z,12.82
2018-04-08T02:01:21.869Z,12.56
2018-04-08T02:06:23.947Z,12.51
2018-04-08T02:11:25.295Z,12.56
2018-04-08T02:16:26.604Z,12.68
2018-04-08T02:21:27.911Z,12.63
2018-04-08T02:26:29.219Z,12.77
2018-04-08T02:31:30.567Z,12.58
2018-04-08T02:36:31.919Z,12.43
2018-04-08T02:41:33.968Z,12.57
2018-04-08T02:51:42.972Z,12.51
2018-04-08T02:56:44.283Z,12.29
2018-04-08T03:01:45.627Z,12.17
2018-04-08T03:06:47.679Z,12.32
2018-04-08T03:11:48.991Z,12.53
2018-04-08T03:16:50.335Z,12.46
2018-04-08T03:21:51.690Z,12.46
2018-04-08T03:26:53.004Z,12.37
2018-04-08T03:31:54.346Z,12.37
2018-04-08T03:36:55.721Z,12.31
2018-04-08T03:41:57.032Z,11.96
2018-04-08T03:46:58.542Z,11.85
2018-04-08T03:51:59.863Z,11.96
2018-04-08T03:57:01.178Z,11.88
2018-04-08T04:02:02.543Z,11.64
2018-04-08T04:07:03.848Z,11.83
2018-04-08T04:12:05.182Z,11.85
2018-04-08T04:17:06.503Z,11.87
2018-04-08T04:22:26.327Z,11.77
2018-04-08T04:27:27.647Z,11.58
2018-04-08T04:32:28.999Z,11.57
2018-04-08T04:37:31.103Z,11.30
2018-04-08T04:42:33.141Z,11.34
2018-04-08T04:47:34.743Z,11.57
2018-04-08T04:52:36.079Z,11.74
2018-04-08T04:57:37.401Z,11.55
2018-04-08T05:02:39.495Z,11.54
2018-04-08T05:07:41.532Z,11.80
2018-04-08T05:12:43.036Z,11.87
2018-04-08T05:17:44.404Z,11.97
2018-04-08T05:22:45.836Z,12.23
2018-04-08T05:27:47.174Z,12.10
2018-04-08T05:32:48.548Z,11.96
2018-04-08T05:37:49.867Z,12.06
2018-04-08T05:42:51.230Z,12.07
2018-04-08T05:47:53.279Z,12.57
2018-04-08T05:52:54.619Z,12.83
2018-04-08T05:57:56.702Z,13.10
2018-04-08T06:02:58.012Z,13.38
2018-04-08T06:08:00.075Z,13.63
2018-04-08T06:13:01.383Z,13.84
2018-04-08T06:18:02.755Z,14.04
2018-04-08T06:23:04.115Z,14.34
2018-04-08T06:28:05.443Z,14.57
2018-04-08T06:33:06.748Z,14.86
2018-04-08T06:38:08.091Z,15.30
2018-04-08T06:43:09.515Z,15.63
2018-04-08T06:48:10.854Z,15.89
2018-04-08T06:53:12.956Z,16.18
2018-04-08T06:58:15.011Z,16.49
2018-04-08T07:03:16.339Z,16.77
2018-04-08T07:08:17.640Z,17.13
2018-04-08T07:13:19.675Z,17.58
2018-04-08T07:18:21.076Z,18.04
2018-04-08T07:23:22.445Z,18.25
2018-04-08T07:28:23.748Z,18.60
2018-04-08T07:33:25.063Z,18.94
2018-04-08T07:38:26.356Z,19.05
2018-04-08T07:43:27.685Z,19.23
2018-04-08T07:48:29.753Z,19.42
2018-04-08T07:53:31.086Z,19.67
2018-04-08T07:58:32.383Z,19.85
2018-04-08T08:03:33.699Z,20.18
2018-04-08T08:08:35.004Z,20.41
2018-04-08T08:13:36.319Z,20.63
2018-04-08T08:18:38.382Z,20.87
2018-04-08T08:23:39.705Z,21.04
2018-04-08T08:28:41.014Z,21.18
2018-04-08T08:33:43.069Z,21.37
2018-04-08T08:38:44.363Z,21.58
2018-04-08T08:43:45.660Z,21.83
2018-04-08T08:48:46.979Z,22.05
2018-04-08T08:53:49.007Z,22.20
2018-04-08T08:58:50.332Z,22.35
2018-04-08T09:03:51.655Z,22.53
2018-04-08T09:08:52.998Z,22.70
2018-04-08T09:13:54.296Z,22.96
2018-04-08T09:19:07.433Z,23.15
2018-04-08T09:24:12.664Z,23.43
2018-04-08T09:29:13.953Z,23.62
2018-04-08T09:34:15.263Z,23.96
2018-04-08T09:39:17.322Z,24.02
2018-04-08T09:44:18.647Z,24.09
2018-04-08T09:49:19.951Z,24.12
2018-04-08T09:54:22.003Z,24.18
2018-04-08T09:59:23.409Z,24.52
2018-04-08T10:04:24.726Z,24.64
2018-04-08T10:09:26.147Z,24.80
2018-04-08T10:14:27.459Z,24.95
2018-04-08T10:19:28.792Z,25.16
2018-04-08T10:24:30.124Z,25.27
2018-04-08T10:29:31.443Z,25.29
2018-04-08T10:34:32.767Z,25.27
2018-04-08T10:39:34.094Z,25.33
2018-04-08T10:44:35.436Z,25.37
2018-04-08T10:49:36.759Z,25.51
2018-04-08T10:54:38.820Z,25.63
2018-04-08T10:59:40.158Z,25.62
2018-04-08T11:04:41.467Z,25.73
2018-04-08T11:09:42.800Z,25.75
2018-04-08T11:14:44.124Z,25.93
2018-04-08T11:19:45.431Z,25.85
2018-04-08T11:24:46.852Z,26.23
2018-04-08T11:29:48.174Z,26.47
2018-04-08T11:34:50.243Z,26.66
2018-04-08T11:39:51.591Z,26.64
2018-04-08T11:44:52.905Z,26.65
2018-04-08T11:49:54.231Z,26.81
2018-04-08T11:54:55.535Z,26.86
2018-04-08T11:59:57.701Z,26.97
2018-04-08T12:04:59.018Z,27.01
2018-04-08T12:10:00.339Z,27.05
2018-04-08T12:15:01.655Z,27.06
2018-04-08T12:20:03.004Z,27.11
2018-04-08T12:25:05.115Z,27.11
2018-04-08T12:30:07.418Z,27.13
2018-04-08T12:35:09.692Z,26.94
2018-04-08T12:40:11.244Z,26.86
2018-04-08T12:45:13.503Z,27.01
2018-04-08T12:50:14.839Z,27.15
2018-04-08T12:55:16.899Z,26.98
2018-04-08T13:00:18.369Z,26.85
2018-04-08T13:05:19.696Z,27.13
2018-04-08T13:10:21.030Z,27.16
2018-04-08T13:15:22.411Z,27.24
2018-04-08T13:20:24.496Z,27.26
2018-04-08T13:25:25.892Z,27.09
2018-04-08T13:30:27.961Z,27.34
2018-04-08T13:35:29.288Z,27.47
2018-04-08T13:40:31.366Z,27.53
2018-04-08T13:45:32.688Z,27.59
2018-04-08T13:50:34.749Z,27.59
2018-04-08T13:55:36.087Z,27.61
2018-04-08T14:00:38.219Z,27.59
2018-04-08T14:05:39.554Z,27.62
2018-04-08T14:10:40.889Z,27.52
2018-04-08T14:15:42.187Z,27.50
2018-04-08T14:20:43.512Z,27.56
2018-04-08T14:25:44.823Z,27.73
2018-04-08T14:30:46.186Z,27.79
2018-04-08T14:35:47.515Z,27.85
2018-04-08T14:40:49.587Z,27.93
2018-04-08T14:45:50.921Z,27.55
2018-04-08T14:50:53.011Z,27.18
2018-04-08T14:55:54.347Z,27.12
2018-04-08T15:00:55.718Z,27.40
2018-04-08T15:05:57.054Z,27.68
2018-04-08T15:10:58.380Z,27.80
2018-04-08T15:16:00.448Z,28.02
2018-04-08T15:21:01.777Z,28.55
2018-04-08T15:26:03.875Z,28.74
2018-04-08T15:31:05.202Z,28.27
2018-04-08T15:36:06.534Z,28.16
2018-04-08T15:41:07.926Z,27.92
2018-04-08T15:46:09.268Z,27.46
2018-04-08T15:51:10.632Z,26.82
2018-04-08T15:56:11.964Z,26.59
2018-04-08T16:01:13.291Z,26.63
2018-04-08T16:06:14.590Z,26.57
2018-04-08T16:11:16.315Z,26.78
2018-04-08T16:16:18.507Z,26.62
2018-04-08T16:21:20.571Z,26.25
2018-04-08T16:26:21.865Z,25.93
2018-04-08T16:31:23.180Z,25.77
2018-04-08T16:36:24.499Z,25.57
2018-04-08T16:41:26.552Z,25.49
2018-04-08T16:46:27.911Z,25.30
2018-04-08T16:51:29.937Z,25.14
2018-04-08T16:56:31.300Z,24.89
2018-04-08T17:01:32.628Z,24.75
2018-04-08T17:06:33.943Z,24.52
2018-04-08T17:11:36.405Z,24.47
2018-04-08T17:16:37.786Z,24.30
2018-04-08T17:21:39.110Z,24.10
2018-04-08T17:26:40.432Z,23.97
2018-04-08T17:31:41.751Z,23.85
2018-04-08T17:36:43.047Z,23.64
2018-04-08T17:41:44.343Z,23.40
2018-04-08T17:46:46.513Z,23.23
2018-04-08T17:51:47.843Z,22.98
2018-04-08T17:56:49.172Z,23.05
2018-04-08T18:01:50.632Z,22.80
2018-04-08T18:06:51.923Z,22.73
2018-04-08T18:11:53.368Z,22.47
2018-04-08T18:16:54.703Z,22.43
2018-04-08T18:21:56.004Z,22.26
2018-04-08T18:26:57.390Z,22.14
2018-04-08T18:31:58.724Z,22.10
2018-04-08T18:37:00.015Z,21.95
2018-04-08T18:42:02.072Z,21.85
2018-04-08T18:47:03.838Z,21.82
2018-04-08T18:52:06.631Z,21.77
2018-04-08T18:57:07.982Z,21.76
2018-04-08T19:02:09.435Z,21.60
2018-04-08T19:07:11.630Z,21.60
2018-04-08T19:12:13.047Z,21.55
2018-04-08T19:17:21.246Z,21.27
2018-04-08T19:22:22.611Z,21.21
2018-04-08T19:27:29.883Z,21.23
2018-04-08T19:32:31.302Z,21.20
2018-04-08T19:37:33.355Z,21.15
2018-04-08T19:42:34.679Z,21.03
2018-04-08T19:47:35.990Z,20.98
2018-04-08T19:52:38.036Z,21.05
2018-04-08T19:57:39.322Z,20.92
2018-04-08T20:02:40.627Z,20.90
2018-04-08T20:07:41.919Z,20.83
2018-04-08T20:12:43.224Z,20.63
2018-04-08T20:17:44.519Z,20.48
2018-04-08T20:22:45.831Z,20.46
2018-04-08T20:27:47.119Z,20.31
2018-04-08T20:32:48.430Z,20.31
2018-04-08T20:37:49.731Z,20.23
2018-04-08T20:42:51.071Z,20.24
2018-04-08T20:47:53.135Z,20.01
2018-04-08T20:52:54.456Z,19.91
2018-04-08T20:57:55.763Z,19.83
2018-04-08T21:02:57.810Z,19.79
2018-04-08T21:07:59.135Z,19.70
2018-04-08T21:13:00.479Z,19.64
2018-04-08T21:18:02.536Z,19.67
2018-04-08T21:23:04.610Z,19.64
2018-04-08T21:28:05.915Z,19.49
2018-04-08T21:33:07.261Z,19.51
2018-04-08T21:38:08.583Z,19.56
2018-04-08T21:43:09.919Z,19.39
2018-04-08T21:48:11.984Z,19.32
2018-04-08T21:53:13.332Z,19.15
2018-04-08T21:58:14.662Z,19.09
2018-04-08T22:03:15.974Z,18.93
2018-04-08T22:08:17.334Z,18.96
2018-04-08T22:13:18.657Z,18.88
2018-04-08T22:18:19.983Z,18.86
2018-04-08T22:23:21.317Z,18.95
2018-04-08T22:28:22.629Z,18.98
2018-04-08T22:33:23.951Z,18.92
2018-04-08T22:38:25.252Z,18.86
2018-04-08T22:43:26.567Z,18.85
2018-04-08T22:48:27.863Z,18.84
2018-04-08T22:53:29.215Z,18.82
2018-04-08T22:58:30.586Z,18.60
2018-04-08T23:03:32.635Z,18.47
2018-04-08T23:08:33.944Z,18.36
2018-04-08T23:13:35.320Z,18.35
2018-04-08T23:18:36.623Z,18.39
2018-04-08T23:23:37.964Z,18.55
2018-04-08T23:28:39.267Z,18.42
2018-04-08T23:33:40.568Z,18.09
2018-04-08T23:38:41.878Z,18.09
2018-04-08T23:43:43.203Z,18.19
2018-04-08T23:48:45.255Z,18.19
2018-04-08T23:53:46.568Z,18.08
2018-04-08T23:58:47.915Z,17.88
